createdAt,value
2023-09-13T00:01:42.187Z,19.23
2023-09-13T00:04:11.422Z,19.20
2023-09-13T00:06:59.643Z,19.16
2023-09-13T00:09:47.815Z,19.12
2023-09-13T00:12:55.996Z,19.10
2023-09-13T00:15:52.151Z,19.07
2023-09-13T00:18:47.877Z,19.04
2023-09-13T00:21:40.331Z,19.02
2023-09-13T00:24:34.270Z,18.99
2023-09-13T00:27:22.180Z,18.98
2023-09-13T00:30:07.209Z,18.96
2023-09-13T00:32:56.102Z,18.92
2023-09-13T00:35:27.516Z,18.90
2023-09-13T00:37:57.063Z,18.87
2023-09-13T00:41:00.435Z,18.83
2023-09-13T00:43:31.331Z,18.81
2023-09-13T00:46:21.103Z,18.78
2023-09-13T00:49:13.677Z,18.77
2023-09-13T00:52:06.211Z,18.73
2023-09-13T00:55:14.537Z,18.71
2023-09-13T00:57:43.618Z,18.68
2023-09-13T01:00:15.143Z,18.66
2023-09-13T01:03:03.679Z,18.63
2023-09-13T01:05:59.489Z,18.58
2023-09-13T01:08:28.314Z,18.56
2023-09-13T01:10:56.133Z,18.53
2023-09-13T01:14:03.879Z,18.50
2023-09-13T01:16:34.923Z,18.48
2023-09-13T01:19:29.945Z,18.44
2023-09-13T01:22:38.011Z,18.42
2023-09-13T01:25:47.127Z,18.40
2023-09-13T01:28:15.422Z,18.39
2023-09-13T01:30:54.690Z,18.37
2023-09-13T01:33:47.289Z,18.36
2023-09-13T01:36:15.836Z,18.36
2023-09-13T01:38:56.939Z,18.33
2023-09-13T01:41:55.624Z,18.33
2023-09-13T01:44:31.575Z,18.32
2023-09-13T01:47:20.602Z,18.30
2023-09-13T01:50:12.286Z,18.28
2023-09-13T01:52:57.545Z,18.28
2023-09-13T01:55:25.755Z,18.26
2023-09-13T01:58:14.704Z,18.24
2023-09-13T02:01:04.420Z,18.21
2023-09-13T02:03:47.769Z,18.20
2023-09-13T02:06:39.374Z,18.17
2023-09-13T02:09:25.372Z,18.15
2023-09-13T02:12:13.665Z,18.15
2023-09-13T02:15:02.393Z,18.14
2023-09-13T02:17:42.261Z,18.13
2023-09-13T02:20:16.549Z,18.11
2023-09-13T02:23:32.364Z,18.09
2023-09-13T02:26:27.875Z,18.09
2023-09-13T02:29:16.895Z,18.08
2023-09-13T02:32:05.576Z,18.07
2023-09-13T02:35:13.403Z,18.05
2023-09-13T02:37:43.762Z,18.05
2023-09-13T02:40:11.954Z,18.04
2023-09-13T02:43:00.367Z,18.04
2023-09-13T02:45:48.517Z,18.02
2023-09-13T02:48:38.058Z,18.00
2023-09-13T02:51:07.734Z,17.98
2023-09-13T02:53:39.951Z,17.98
2023-09-13T02:56:47.434Z,17.96
2023-09-13T02:59:16.403Z,17.94
2023-09-13T03:02:24.131Z,17.92
2023-09-13T03:04:52.747Z,17.90
2023-09-13T03:07:42.573Z,17.89
2023-09-13T03:10:54.034Z,17.88
2023-09-13T03:13:23.486Z,17.87
2023-09-13T03:16:27.336Z,17.85
2023-09-13T03:18:57.197Z,17.85
2023-09-13T03:21:55.168Z,17.83
2023-09-13T03:24:24.433Z,17.82
2023-09-13T03:27:00.660Z,17.80
2023-09-13T03:29:35.376Z,17.79
2023-09-13T03:32:39.217Z,17.76
2023-09-13T03:35:12.131Z,17.75
2023-09-13T03:37:48.832Z,17.74
2023-09-13T03:40:58.063Z,17.74
2023-09-13T03:44:06.589Z,17.73
2023-09-13T03:46:36.583Z,17.73
2023-09-13T03:49:27.058Z,17.71
2023-09-13T03:52:30.514Z,17.70
2023-09-13T03:55:19.437Z,17.69
2023-09-13T03:58:07.990Z,17.68
2023-09-13T04:01:11.926Z,17.67
2023-09-13T04:03:44.696Z,17.67
2023-09-13T04:06:15.544Z,17.66
2023-09-13T04:09:02.307Z,17.66
2023-09-13T04:11:32.050Z,17.65
2023-09-13T04:14:16.866Z,17.66
2023-09-13T04:16:55.191Z,17.66
2023-09-13T04:19:44.009Z,17.67
2023-09-13T04:22:32.523Z,17.68
2023-09-13T04:25:21.720Z,17.69
2023-09-13T04:28:09.295Z,17.70
2023-09-13T04:30:57.684Z,17.73
2023-09-13T04:33:50.093Z,17.75
2023-09-13T04:36:38.848Z,17.77
2023-09-13T04:39:29.692Z,17.80
2023-09-13T04:42:05.959Z,17.81
2023-09-13T04:44:56.733Z,17.84
2023-09-13T04:47:27.580Z,17.86
2023-09-13T04:50:23.075Z,17.89
2023-09-13T04:53:17.376Z,17.93
2023-09-13T04:55:51.583Z,18.00
2023-09-13T04:58:43.449Z,18.08
2023-09-13T05:01:35.253Z,18.15
2023-09-13T05:04:43.117Z,18.24
2023-09-13T05:07:12.505Z,18.34
2023-09-13T05:10:03.628Z,18.42
2023-09-13T05:12:32.735Z,18.49
2023-09-13T05:15:36.801Z,18.57
2023-09-13T05:18:09.244Z,18.65
2023-09-13T05:20:41.998Z,18.69
2023-09-13T05:23:33.552Z,18.76
2023-09-13T05:26:25.191Z,18.83
2023-09-13T05:28:55.604Z,18.89
2023-09-13T05:32:04.517Z,18.97
2023-09-13T05:34:52.108Z,19.06
2023-09-13T05:37:21.471Z,19.13
2023-09-13T05:40:25.757Z,19.21
2023-09-13T05:43:20.950Z,19.31
2023-09-13T05:45:57.257Z,19.38
2023-09-13T05:48:26.076Z,19.45
2023-09-13T05:50:54.975Z,19.54
2023-09-13T05:53:44.648Z,19.64
2023-09-13T05:56:13.583Z,19.70
2023-09-13T05:58:59.518Z,19.75
2023-09-13T06:01:36.981Z,19.84
2023-09-13T06:04:25.816Z,19.94
2023-09-13T06:06:58.906Z,20.00
2023-09-13T06:09:46.717Z,20.06
2023-09-13T06:12:15.911Z,20.11
2023-09-13T06:14:59.587Z,20.21
2023-09-13T06:17:28.548Z,20.32
2023-09-13T06:20:17.049Z,20.44
2023-09-13T06:23:36.206Z,20.56
2023-09-13T06:26:23.550Z,20.66
2023-09-13T06:28:52.824Z,20.71
2023-09-13T06:31:32.860Z,20.80
2023-09-13T06:36:54.439Z,20.92
2023-09-13T06:39:24.986Z,20.96
2023-09-13T06:42:27.509Z,21.07
2023-09-13T06:45:22.407Z,21.18
2023-09-13T06:48:10.544Z,21.28
2023-09-13T06:53:34.672Z,21.51
2023-09-13T06:56:24.463Z,21.64
2023-09-13T06:58:59.307Z,21.75
2023-09-13T07:04:22.189Z,22.04
2023-09-13T07:06:56.544Z,22.13
2023-09-13T07:09:27.600Z,22.23
2023-09-13T07:12:35.106Z,22.37
2023-09-13T07:15:07.356Z,22.48
2023-09-13T07:17:40.416Z,22.59
2023-09-13T07:20:48.512Z,22.71
2023-09-13T07:23:17.613Z,22.80
2023-09-13T07:25:49.093Z,22.93
2023-09-13T07:28:37.017Z,23.10
2023-09-13T07:31:44.632Z,23.22
2023-09-13T07:34:32.045Z,23.32
2023-09-13T07:37:01.893Z,23.44
2023-09-13T07:39:31.612Z,23.56
2023-09-13T07:41:59.844Z,23.65
2023-09-13T07:44:30.522Z,23.71
2023-09-13T07:47:14.510Z,23.82
2023-09-13T07:49:44.614Z,23.97
2023-09-13T07:52:48.630Z,24.14
2023-09-13T07:55:25.149Z,24.32
2023-09-13T07:58:52.972Z,24.45
2023-09-13T08:01:42.033Z,24.59
2023-09-13T08:05:01.149Z,24.82
2023-09-13T08:07:49.265Z,25.04
2023-09-13T08:10:41.858Z,25.25
2023-09-13T08:13:15.617Z,25.40
2023-09-13T08:15:49.467Z,25.51
2023-09-13T08:18:40.454Z,25.72
2023-09-13T08:21:28.185Z,25.87
2023-09-13T08:23:58.863Z,26.01
2023-09-13T08:26:28.755Z,26.12
2023-09-13T08:29:01.253Z,26.21
2023-09-13T08:31:30.573Z,26.31
2023-09-13T08:33:58.970Z,26.44
2023-09-13T08:36:26.739Z,26.49
2023-09-13T08:38:55.805Z,26.46
2023-09-13T08:41:34.077Z,26.40
2023-09-13T08:44:04.159Z,26.37
2023-09-13T08:46:32.205Z,26.46
2023-09-13T08:49:00.739Z,26.58
2023-09-13T08:51:29.393Z,26.72
2023-09-13T08:54:10.767Z,26.88
2023-09-13T08:56:48.105Z,27.08
2023-09-13T08:59:35.755Z,27.26
2023-09-13T09:02:08.439Z,27.37
2023-09-13T09:04:38.269Z,27.48
2023-09-13T09:07:10.670Z,27.60
2023-09-13T09:09:47.560Z,27.73
2023-09-13T09:12:19.782Z,27.83
2023-09-13T09:14:48.316Z,27.98
2023-09-13T09:17:16.266Z,28.07
2023-09-13T09:19:49.028Z,28.14
2023-09-13T09:22:22.552Z,28.21
2023-09-13T09:24:51.031Z,28.37
2023-09-13T09:27:19.187Z,28.54
2023-09-13T09:29:47.020Z,28.70
2023-09-13T09:32:16.634Z,28.87
2023-09-13T09:34:49.541Z,29.02
2023-09-13T09:37:17.258Z,29.09
2023-09-13T09:39:46.148Z,29.21
2023-09-13T09:42:14.847Z,29.35
2023-09-13T09:44:43.135Z,29.52
2023-09-13T09:47:11.282Z,29.68
2023-09-13T09:49:39.506Z,29.74
2023-09-13T09:52:07.303Z,29.79
2023-09-13T09:54:35.780Z,29.91
2023-09-13T09:57:03.862Z,29.97
2023-09-13T09:59:31.472Z,30.08
2023-09-13T10:02:01.642Z,30.27
2023-09-13T10:04:29.674Z,30.42
2023-09-13T10:06:57.909Z,30.62
2023-09-13T10:09:26.457Z,30.80
2023-09-13T10:11:53.991Z,31.00
2023-09-13T10:14:21.883Z,31.17
2023-09-13T10:16:51.324Z,31.26
2023-09-13T10:19:19.044Z,31.36
2023-09-13T10:21:46.939Z,31.46
2023-09-13T10:24:15.096Z,31.49
2023-09-13T10:26:43.484Z,31.51
2023-09-13T10:29:11.860Z,31.69
2023-09-13T10:31:41.167Z,31.70
2023-09-13T10:34:09.262Z,31.74
2023-09-13T10:36:37.456Z,31.61
2023-09-13T10:39:05.297Z,31.63
2023-09-13T10:41:34.875Z,31.79
2023-09-13T10:44:03.473Z,31.99
2023-09-13T10:46:32.045Z,32.13
2023-09-13T10:48:59.788Z,32.28
2023-09-13T10:51:28.252Z,32.51
2023-09-13T10:53:56.430Z,32.74
2023-09-13T10:56:24.498Z,32.99
2023-09-13T10:58:52.702Z,33.21
2023-09-13T11:01:20.598Z,33.19
2023-09-13T11:03:49.289Z,32.98
2023-09-13T11:06:17.098Z,32.86
2023-09-13T11:08:45.152Z,32.92
2023-09-13T11:11:13.191Z,33.09
2023-09-13T11:13:41.735Z,33.26
2023-09-13T11:16:09.491Z,33.34
2023-09-13T11:18:37.508Z,33.40
2023-09-13T11:21:06.226Z,33.34
2023-09-13T11:23:35.115Z,33.22
2023-09-13T11:26:05.333Z,33.27
2023-09-13T11:28:35.643Z,33.45
2023-09-13T11:31:03.790Z,33.57
2023-09-13T11:33:31.809Z,33.72
2023-09-13T11:36:00.192Z,33.76
2023-09-13T11:38:27.920Z,33.91
2023-09-13T11:40:58.470Z,33.91
2023-09-13T11:43:33.844Z,33.91
2023-09-13T11:46:03.128Z,33.84
2023-09-13T11:48:39.305Z,33.79
2023-09-13T11:51:20.539Z,33.85
2023-09-13T11:53:54.243Z,33.96
2023-09-13T11:56:41.461Z,34.07
2023-09-13T11:59:10.708Z,34.05
2023-09-13T12:01:40.898Z,34.14
2023-09-13T12:06:41.121Z,33.97
2023-09-13T12:09:14.584Z,34.00
2023-09-13T12:11:45.474Z,34.12
2023-09-13T12:14:22.682Z,34.12
2023-09-13T12:16:58.097Z,34.19
2023-09-13T12:19:26.574Z,34.32
2023-09-13T12:21:54.630Z,34.42
2023-09-13T12:24:23.228Z,34.53
2023-09-13T12:26:52.991Z,34.61
2023-09-13T12:29:22.027Z,34.68
2023-09-13T12:31:50.271Z,34.72
2023-09-13T12:34:17.911Z,34.87
2023-09-13T12:36:46.193Z,35.14
2023-09-13T12:39:16.279Z,35.47
2023-09-13T12:41:46.558Z,35.73
2023-09-13T12:44:14.904Z,35.87
2023-09-13T12:46:43.102Z,36.11
2023-09-13T12:49:10.725Z,36.32
2023-09-13T12:51:39.254Z,36.57
2023-09-13T12:54:07.096Z,36.75
2023-09-13T12:56:34.922Z,36.71
2023-09-13T12:59:03.077Z,36.76
2023-09-13T13:01:31.401Z,37.02
2023-09-13T13:04:00.525Z,37.13
2023-09-13T13:06:28.595Z,37.37
2023-09-13T13:08:56.147Z,37.50
2023-09-13T13:11:25.260Z,37.73
2023-09-13T13:13:52.877Z,37.99
2023-09-13T13:16:38.954Z,38.02
2023-09-13T13:21:41.729Z,37.97
2023-09-13T13:24:09.489Z,37.70
2023-09-13T13:26:37.206Z,37.81
2023-09-13T13:29:05.278Z,37.97
2023-09-13T13:31:33.075Z,38.13
2023-09-13T13:34:00.966Z,38.44
2023-09-13T13:36:28.717Z,38.59
2023-09-13T13:38:56.380Z,38.80
2023-09-13T13:41:24.480Z,38.90
2023-09-13T13:43:52.902Z,39.11
2023-09-13T13:46:21.167Z,39.14
2023-09-13T13:48:48.780Z,39.09
2023-09-13T13:51:16.941Z,39.28
2023-09-13T13:53:45.111Z,39.47
2023-09-13T13:56:13.440Z,39.44
2023-09-13T13:58:41.219Z,39.44
2023-09-13T14:01:08.884Z,39.30
2023-09-13T14:03:36.523Z,39.36
2023-09-13T14:06:04.508Z,39.34
2023-09-13T14:08:32.212Z,39.37
2023-09-13T14:10:59.878Z,39.34
2023-09-13T14:13:27.865Z,39.38
2023-09-13T14:15:55.584Z,39.43
2023-09-13T14:18:24.811Z,39.57
2023-09-13T14:20:53.012Z,39.48
2023-09-13T14:23:21.300Z,39.65
2023-09-13T14:25:49.187Z,39.47
2023-09-13T14:28:17.081Z,39.45
2023-09-13T14:30:45.002Z,39.57
2023-09-13T14:33:13.917Z,39.55
2023-09-13T14:35:42.455Z,39.44
2023-09-13T14:38:10.579Z,39.16
2023-09-13T14:40:39.450Z,38.79
2023-09-13T14:43:07.637Z,38.65
2023-09-13T14:45:35.382Z,38.40
2023-09-13T14:48:04.128Z,38.55
2023-09-13T14:50:32.044Z,38.55
2023-09-13T14:52:59.598Z,38.34
2023-09-13T14:55:27.241Z,37.97
2023-09-13T14:57:55.348Z,37.68
2023-09-13T15:00:23.168Z,37.81
2023-09-13T15:02:51.523Z,38.15
2023-09-13T15:05:19.578Z,38.63
2023-09-13T15:07:47.235Z,39.04
2023-09-13T15:10:14.842Z,39.21
2023-09-13T15:12:42.978Z,39.37
2023-09-13T15:15:10.657Z,39.51
2023-09-13T15:17:38.332Z,39.74
2023-09-13T15:20:06.891Z,39.82
2023-09-13T15:22:35.240Z,39.97
2023-09-13T15:25:02.873Z,40.08
2023-09-13T15:27:30.538Z,40.16
2023-09-13T15:29:58.282Z,39.99
2023-09-13T15:32:26.001Z,39.73
2023-09-13T15:34:54.209Z,39.34
2023-09-13T15:37:22.250Z,39.08
2023-09-13T15:39:50.485Z,38.87
2023-09-13T15:42:18.312Z,38.67
2023-09-13T15:44:46.512Z,38.26
2023-09-13T15:47:14.148Z,37.76
2023-09-13T15:49:42.235Z,37.25
2023-09-13T15:52:09.927Z,36.90
2023-09-13T15:54:38.522Z,36.69
2023-09-13T15:57:06.636Z,36.62
2023-09-13T15:59:35.084Z,36.58
2023-09-13T16:02:03.031Z,36.56
2023-09-13T16:04:30.779Z,36.43
2023-09-13T16:06:59.020Z,36.30
2023-09-13T16:09:26.797Z,36.07
2023-09-13T16:11:54.898Z,35.65
2023-09-13T16:14:22.957Z,35.13
2023-09-13T16:16:50.630Z,34.65
2023-09-13T16:19:18.991Z,34.14
2023-09-13T16:21:46.789Z,33.62
2023-09-13T16:24:14.441Z,33.15
2023-09-13T16:26:42.433Z,32.76
2023-09-13T16:29:12.074Z,32.41
2023-09-13T16:31:40.812Z,32.09
2023-09-13T16:34:08.466Z,31.80
2023-09-13T16:36:36.343Z,31.52
2023-09-13T16:39:04.143Z,31.24
2023-09-13T16:41:34.138Z,30.98
2023-09-13T16:44:01.815Z,30.75
2023-09-13T16:46:30.499Z,30.50
2023-09-13T16:48:58.590Z,30.27
2023-09-13T16:51:26.741Z,30.07
2023-09-13T16:53:55.531Z,29.90
2023-09-13T16:56:23.455Z,29.75
2023-09-13T16:58:51.691Z,29.59
2023-09-13T17:01:19.599Z,29.43
2023-09-13T17:03:48.699Z,29.26
2023-09-13T17:06:16.932Z,29.12
2023-09-13T17:08:45.178Z,28.99
2023-09-13T17:11:13.900Z,28.85
2023-09-13T17:13:43.009Z,28.73
2023-09-13T17:16:11.231Z,28.61
2023-09-13T17:18:40.459Z,28.49
2023-09-13T17:21:08.468Z,28.39
2023-09-13T17:23:36.622Z,28.29
2023-09-13T17:26:04.451Z,28.20
2023-09-13T17:28:32.822Z,28.10
2023-09-13T17:31:01.513Z,28.04
2023-09-13T17:33:29.343Z,27.96
2023-09-13T17:36:00.253Z,27.88
2023-09-13T17:38:29.340Z,27.80
2023-09-13T17:40:57.544Z,27.73
2023-09-13T17:43:27.778Z,27.65
2023-09-13T17:45:58.571Z,27.57
2023-09-13T17:48:26.867Z,27.51
2023-09-13T17:51:27.852Z,27.43
2023-09-13T17:59:28.006Z,27.25
2023-09-13T18:01:56.061Z,27.20
2023-09-13T18:04:23.944Z,27.14
2023-09-13T18:07:00.519Z,27.08
2023-09-13T18:09:29.769Z,27.02
2023-09-13T18:11:58.130Z,26.97
2023-09-13T18:14:27.568Z,26.92
2023-09-13T18:16:55.334Z,26.85
2023-09-13T18:19:26.340Z,26.78
2023-09-13T18:21:57.832Z,26.73
2023-09-13T18:24:36.770Z,26.68
2023-09-13T18:27:06.944Z,26.63
2023-09-13T18:29:36.650Z,26.58
2023-09-13T18:32:04.430Z,26.53
2023-09-13T18:34:32.879Z,26.49
2023-09-13T18:37:01.853Z,26.44
2023-09-13T18:39:31.688Z,26.40
2023-09-13T18:41:59.463Z,26.35
2023-09-13T18:44:27.567Z,26.31
2023-09-13T18:46:58.196Z,26.26
2023-09-13T18:49:27.849Z,26.19
2023-09-13T18:51:57.090Z,26.14
2023-09-13T18:54:25.039Z,26.08
2023-09-13T18:56:53.954Z,26.02
2023-09-13T18:59:33.984Z,25.97
2023-09-13T19:02:02.353Z,25.92
2023-09-13T19:04:32.207Z,25.85
2023-09-13T19:07:09.333Z,25.79
2023-09-13T19:09:39.584Z,25.72
2023-09-13T19:12:24.415Z,25.65
2023-09-13T19:14:54.104Z,25.59
2023-09-13T19:17:22.219Z,25.53
2023-09-13T19:19:50.124Z,25.48
2023-09-13T19:22:19.090Z,25.44
2023-09-13T19:24:56.721Z,25.40
2023-09-13T19:27:25.874Z,25.36
2023-09-13T19:30:03.331Z,25.31
2023-09-13T19:32:33.268Z,25.28
2023-09-13T19:35:01.589Z,25.23
2023-09-13T19:37:30.081Z,25.18
2023-09-13T19:39:59.116Z,25.15
2023-09-13T19:42:27.406Z,25.10
2023-09-13T19:44:59.153Z,25.06
2023-09-13T19:47:27.673Z,25.02
2023-09-13T19:49:55.524Z,24.98
2023-09-13T19:52:23.391Z,24.94
2023-09-13T19:54:53.427Z,24.89
2023-09-13T19:57:21.630Z,24.85
2023-09-13T19:59:53.971Z,24.80
2023-09-13T20:02:23.107Z,24.75
2023-09-13T20:04:52.110Z,24.67
2023-09-13T20:07:21.816Z,24.57
2023-09-13T20:09:49.640Z,24.52
2023-09-13T20:12:17.474Z,24.48
2023-09-13T20:14:46.216Z,24.44
2023-09-13T20:17:15.962Z,24.40
2023-09-13T20:19:46.031Z,24.37
2023-09-13T20:22:14.520Z,24.34
2023-09-13T20:24:42.903Z,24.30
2023-09-13T20:27:10.720Z,24.27
2023-09-13T20:29:40.539Z,24.24
2023-09-13T20:32:08.385Z,24.20
2023-09-13T20:34:52.160Z,24.17
2023-09-13T20:37:20.583Z,24.13
2023-09-13T20:39:50.578Z,24.08
2023-09-13T20:42:19.302Z,24.04
2023-09-13T20:44:54.584Z,23.97
2023-09-13T20:47:24.960Z,23.91
2023-09-13T20:49:52.999Z,23.86
2023-09-13T20:52:23.240Z,23.80
2023-09-13T20:54:51.275Z,23.76
2023-09-13T20:57:19.082Z,23.72
2023-09-13T20:59:47.085Z,23.68
2023-09-13T21:02:14.924Z,23.64
2023-09-13T21:04:43.070Z,23.61
2023-09-13T21:07:11.452Z,23.57
2023-09-13T21:09:39.778Z,23.55
2023-09-13T21:12:09.077Z,23.50
2023-09-13T21:14:37.737Z,23.46
2023-09-13T21:17:06.009Z,23.38
2023-09-13T21:19:41.688Z,23.30
2023-09-13T21:22:10.457Z,23.21
2023-09-13T21:24:55.780Z,23.14
2023-09-13T21:27:25.055Z,23.10
2023-09-13T21:29:55.269Z,23.07
2023-09-13T21:32:23.050Z,23.03
2023-09-13T21:35:02.230Z,22.99
2023-09-13T21:37:34.863Z,22.94
2023-09-13T21:40:04.714Z,22.89
2023-09-13T21:42:33.884Z,22.85
2023-09-13T21:45:04.080Z,22.81
2023-09-13T21:47:33.237Z,22.76
2023-09-13T21:50:02.152Z,22.73
2023-09-13T21:52:30.549Z,22.67
2023-09-13T21:55:06.721Z,22.63
2023-09-13T21:57:39.354Z,22.58
2023-09-13T22:00:07.414Z,22.54
2023-09-13T22:02:39.751Z,22.50
2023-09-13T22:05:08.623Z,22.46
2023-09-13T22:07:56.442Z,22.41
2023-09-13T22:10:25.234Z,22.36
2023-09-13T22:12:53.470Z,22.29
2023-09-13T22:15:23.280Z,22.22
2023-09-13T22:17:52.679Z,22.17
2023-09-13T22:20:21.637Z,22.14
2023-09-13T22:22:49.466Z,22.11
2023-09-13T22:25:17.792Z,22.07
2023-09-13T22:27:46.113Z,22.03
2023-09-13T22:30:14.361Z,22.00
2023-09-13T22:32:43.313Z,21.94
2023-09-13T22:35:12.166Z,21.90
2023-09-13T22:37:42.622Z,21.89
2023-09-13T22:40:10.793Z,21.86
2023-09-13T22:42:54.734Z,21.85
2023-09-13T22:45:27.416Z,21.82
2023-09-13T22:47:55.864Z,21.79
2023-09-13T22:50:45.876Z,21.76
2023-09-13T22:53:14.923Z,21.73
2023-09-13T22:55:42.677Z,21.70
2023-09-13T22:58:11.482Z,21.69
2023-09-13T23:00:42.973Z,21.67
2023-09-13T23:03:12.240Z,21.67
2023-09-13T23:05:41.109Z,21.65
2023-09-13T23:08:08.989Z,21.62
2023-09-13T23:10:37.511Z,21.59
2023-09-13T23:13:09.506Z,21.55
2023-09-13T23:15:37.755Z,21.52
2023-09-13T23:18:05.959Z,21.49
2023-09-13T23:20:34.300Z,21.46
2023-09-13T23:23:22.602Z,21.42
2023-09-13T23:26:10.869Z,21.37
2023-09-13T23:28:39.143Z,21.32
2023-09-13T23:31:08.233Z,21.27
2023-09-13T23:33:38.202Z,21.26
2023-09-13T23:36:07.129Z,21.23
2023-09-13T23:38:35.049Z,21.20
2023-09-13T23:41:03.007Z,21.17
2023-09-13T23:43:31.920Z,21.17
2023-09-13T23:46:00.349Z,21.16
2023-09-13T23:48:28.905Z,21.16
2023-09-13T23:50:58.793Z,21.13
2023-09-13T23:53:27.202Z,21.11
2023-09-13T23:55:56.873Z,21.08
2023-09-13T23:58:24.788Z,21.05
